Time,TemperatureF,DewpointF,PressureIn,WindDirection,WindDirectionDegrees,WindSpeedMPH,WindSpeedGustMPH,Humidity,HourlyPrecipIn,Conditions,Clouds,dailyrainin,SoftwareType,DateUTC
2013-04-04 00:03:00,27.0,20.0,30.31,NNE,22,0.0,0.0,74,0.00,,,-99.99,,2013-04-04 04:03:00,
2013-04-04 00:13:00,27.0,20.0,30.31,NNE,22,0.0,0.0,74,0.00,,,-99.99,,2013-04-04 04:13:00,
2013-04-04 00:23:00,27.0,20.0,30.31,NNE,22,0.0,0.0,74,0.00,,,-99.99,,2013-04-04 04:23:00,
2013-04-04 00:33:00,27.0,20.0,30.31,NNE,22,0.0,0.0,74,0.00,,,-99.99,,2013-04-04 04:33:00,
2013-04-04 00:43:00,27.0,20.0,30.31,NNE,22,0.0,0.0,74,0.00,,,-99.99,,2013-04-04 04:43:00,
2013-04-04 00:53:00,26.0,20.0,30.31,NNE,22,0.0,0.0,77,0.00,,,-99.99,,2013-04-04 04:53:00,
2013-04-04 01:02:00,26.0,20.0,30.31,NNE,22,0.0,0.0,77,0.00,,,-99.99,,2013-04-04 05:02:00,
2013-04-04 01:13:00,26.0,20.0,30.31,NNE,22,0.0,0.0,77,0.00,,,-99.99,,2013-04-04 05:13:00,
2013-04-04 01:23:00,25.0,19.0,30.30,NNE,22,0.0,0.0,79,0.00,,,-99.99,,2013-04-04 05:23:00,
2013-04-04 01:32:00,25.0,19.0,30.30,NNE,22,0.0,0.0,79,0.00,,,-99.99,,2013-04-04 05:32:00,
2013-04-04 01:42:00,25.0,19.0,30.30,NNE,22,0.0,0.0,79,0.00,,,-99.99,,2013-04-04 05:42:00,
2013-04-04 01:52:00,24.0,19.0,30.29,NNE,22,0.0,0.0,81,0.00,,,-99.99,,2013-04-04 05:52:00,
2013-04-04 02:03:00,24.0,19.0,30.29,NNE,22,0.0,0.0,81,0.00,,,-99.99,,2013-04-04 06:03:00,
2013-04-04 02:12:00,24.0,19.0,30.29,NNE,22,0.0,0.0,81,0.00,,,-99.99,,2013-04-04 06:12:00,
2013-04-04 02:22:00,23.0,19.0,30.28,NNE,22,0.0,0.0,83,0.00,,,-99.99,,2013-04-04 06:22:00,
2013-04-04 02:33:00,23.0,19.0,30.27,NNE,22,0.0,0.0,84,0.00,,,-99.99,,2013-04-04 06:33:00,
2013-04-04 02:42:00,23.0,19.0,30.27,NNE,22,0.0,0.0,84,0.00,,,-99.99,,2013-04-04 06:42:00,
2013-04-04 02:52:00,23.0,19.0,30.27,NNE,22,0.0,0.0,84,0.00,,,-99.99,,2013-04-04 06:52:00,
2013-04-04 03:02:00,22.0,18.0,30.27,NNE,22,0.0,0.0,85,0.00,,,-99.99,,2013-04-04 07:02:00,
2013-04-04 03:12:00,22.0,18.0,30.27,NNE,22,0.0,0.0,85,0.00,,,-99.99,,2013-04-04 07:12:00,
2013-04-04 03:22:00,22.0,18.0,30.27,NNE,22,0.0,0.0,85,0.00,,,-99.99,,2013-04-04 07:22:00,
2013-04-04 03:32:00,22.0,18.0,30.27,NNE,22,0.0,0.0,86,0.00,,,-99.99,,2013-04-04 07:32:00,
2013-04-04 03:43:00,22.0,18.0,30.27,NNE,22,0.0,0.0,86,0.00,,,-99.99,,2013-04-04 07:43:00,
2013-04-04 03:52:00,22.0,18.0,30.28,NNE,22,0.0,0.0,86,0.00,,,-99.99,,2013-04-04 07:52:00,
2013-04-04 04:03:00,21.0,17.0,30.28,NNE,22,0.0,0.0,86,0.00,,,-99.99,,2013-04-04 08:03:00,
2013-04-04 04:12:00,21.0,17.0,30.28,NNE,22,0.0,0.0,86,0.00,,,-99.99,,2013-04-04 08:12:00,
2013-04-04 04:23:00,21.0,17.0,30.28,NNE,22,0.0,0.0,86,0.00,,,-99.99,,2013-04-04 08:23:00,
2013-04-04 04:32:00,20.0,17.0,30.28,NNE,22,0.0,0.0,87,0.00,,,-99.99,,2013-04-04 08:32:00,
2013-04-04 04:44:00,20.0,17.0,30.28,NNE,22,0.0,0.0,87,0.00,,,-99.99,,2013-04-04 08:44:00,
2013-04-04 04:53:00,20.0,17.0,30.28,NNE,22,0.0,0.0,88,0.00,,,-99.99,,2013-04-04 08:53:00,
2013-04-04 05:03:00,20.0,17.0,30.28,NNE,22,0.0,0.0,88,0.00,,,-99.99,,2013-04-04 09:03:00,
2013-04-04 05:12:00,20.0,17.0,30.28,NNE,22,0.0,0.0,88,0.00,,,-99.99,,2013-04-04 09:12:00,
2013-04-04 05:22:00,20.0,17.0,30.28,NNE,22,0.0,0.0,88,0.00,,,-99.99,,2013-04-04 09:22:00,
2013-04-04 05:33:00,19.0,16.0,30.29,NNE,22,0.0,0.0,89,0.00,,,-99.99,,2013-04-04 09:33:00,
2013-04-04 05:43:00,19.0,16.0,30.29,NNE,22,0.0,0.0,89,0.00,,,-99.99,,2013-04-04 09:43:00,
2013-04-04 05:54:00,19.0,16.0,30.29,NNE,22,0.0,0.0,89,0.00,,,-99.99,,2013-04-04 09:54:00,
2013-04-04 06:04:00,19.0,17.0,30.29,NNE,22,0.0,0.0,90,0.00,,,-99.99,,2013-04-04 10:04:00,
2013-04-04 06:12:00,19.0,17.0,30.29,NNE,22,0.0,0.0,90,0.00,,,-99.99,,2013-04-04 10:12:00,
2013-04-04 06:24:00,19.0,17.0,30.28,NNE,22,0.0,0.0,90,0.00,,,-99.99,,2013-04-04 10:24:00,
2013-04-04 06:33:00,19.0,17.0,30.28,NNE,22,0.0,0.0,90,0.00,,,-99.99,,2013-04-04 10:33:00,
2013-04-04 06:42:00,19.0,17.0,30.28,NNE,22,0.0,0.0,90,0.00,,,-99.99,,2013-04-04 10:42:00,
2013-04-04 06:53:00,19.0,17.0,30.27,NNE,22,0.0,0.0,90,0.00,,,-99.99,,2013-04-04 10:53:00,
2013-04-04 07:03:00,19.0,17.0,30.27,NNE,22,0.0,0.0,90,0.00,,,-99.99,,2013-04-04 11:03:00,
2013-04-04 07:12:00,19.0,17.0,30.27,NNE,22,0.0,0.0,90,0.00,,,-99.99,,2013-04-04 11:12:00,
2013-04-04 07:22:00,19.0,17.0,30.27,NNE,22,0.0,0.0,91,0.00,,,-99.99,,2013-04-04 11:22:00,
2013-04-04 07:33:00,19.0,17.0,30.25,NNE,22,0.0,0.0,91,0.00,,,-99.99,,2013-04-04 11:33:00,
2013-04-04 07:42:00,19.0,17.0,30.25,NNE,22,0.0,0.0,91,0.00,,,-99.99,,2013-04-04 11:42:00,
2013-04-04 07:54:00,21.0,19.0,30.24,NNE,22,0.0,0.0,90,0.00,,,-99.99,,2013-04-04 11:54:00,
2013-04-04 08:02:00,21.0,18.0,30.24,NNE,22,0.0,0.0,89,0.00,,,-99.99,,2013-04-04 12:02:00,
2013-04-04 08:12:00,21.0,18.0,30.24,NNE,22,0.0,0.0,89,0.00,,,-99.99,,2013-04-04 12:12:00,
2013-04-04 08:22:00,23.0,20.0,30.25,NNE,22,0.0,0.0,88,0.00,,,-99.99,,2013-04-04 12:22:00,
2013-04-04 08:32:00,24.0,21.0,30.25,NNE,22,0.0,0.0,88,0.00,,,-99.99,,2013-04-04 12:32:00,
2013-04-04 08:43:00,24.0,21.0,30.25,NNE,22,0.0,0.0,88,0.00,,,-99.99,,2013-04-04 12:43:00,
2013-04-04 08:52:00,24.0,21.0,30.25,NNE,22,0.0,0.0,88,0.00,,,-99.99,,2013-04-04 12:52:00,
2013-04-04 09:02:00,25.0,21.0,30.24,NNE,22,0.0,0.0,86,0.00,,,-99.99,,2013-04-04 13:02:00,
2013-04-04 09:12:00,25.0,21.0,30.24,NNE,22,0.0,0.0,86,0.00,,,-99.99,,2013-04-04 13:12:00,
2013-04-04 09:22:00,26.0,22.0,30.24,NNE,22,0.0,0.0,85,0.00,,,-99.99,,2013-04-04 13:22:00,
2013-04-04 09:33:00,27.0,22.0,30.24,NNE,22,0.0,0.0,82,0.00,,,-99.99,,2013-04-04 13:33:00,
2013-04-04 09:42:00,27.0,22.0,30.24,NNE,22,0.0,0.0,82,0.00,,,-99.99,,2013-04-04 13:42:00,
2013-04-04 09:52:00,28.0,23.0,30.24,NNE,22,0.0,0.0,82,0.00,,,-99.99,,2013-04-04 13:52:00,
2013-04-04 10:03:00,29.0,23.0,30.23,NNE,22,0.0,0.0,77,0.00,,,-99.99,,2013-04-04 14:03:00,
2013-04-04 10:13:00,29.0,23.0,30.23,NNE,22,0.0,0.0,77,0.00,,,-99.99,,2013-04-04 14:13:00,
2013-04-04 10:22:00,30.0,23.0,30.23,NNE,22,0.0,0.0,75,0.00,,,-99.99,,2013-04-04 14:22:00,
2013-04-04 10:33:00,32.0,24.0,30.22,NNE,22,0.0,0.0,71,0.00,,,-99.99,,2013-04-04 14:33:00,
2013-04-04 10:43:00,32.0,24.0,30.22,NNE,22,0.0,0.0,71,0.00,,,-99.99,,2013-04-04 14:43:00,
2013-04-04 10:52:00,35.0,22.0,30.22,East,83,2.0,9.0,59,0.00,,,-99.99,,2013-04-04 14:52:00,
2013-04-04 11:03:00,36.0,21.0,30.20,East,98,5.0,10.0,53,0.00,,,-99.99,,2013-04-04 15:03:00,
2013-04-04 11:12:00,36.0,21.0,30.20,East,98,5.0,10.0,53,0.00,,,-99.99,,2013-04-04 15:12:00,
2013-04-04 11:23:00,37.0,21.0,30.20,ESE,113,0.0,9.0,53,0.00,,,-99.99,,2013-04-04 15:23:00,
2013-04-04 11:33:00,37.0,21.0,30.22,SE,125,5.0,10.0,53,0.00,,,-99.99,,2013-04-04 15:33:00,
2013-04-04 11:43:00,37.0,21.0,30.22,SE,125,5.0,10.0,53,0.00,,,-99.99,,2013-04-04 15:43:00,
2013-04-04 11:54:00,37.0,19.0,30.20,SE,144,7.0,15.0,47,0.00,,,-99.99,,2013-04-04 15:54:00,
2013-04-04 12:03:00,37.0,20.0,30.19,ESE,110,2.0,9.0,50,0.00,,,-99.99,,2013-04-04 16:03:00,
2013-04-04 12:12:00,37.0,20.0,30.19,ESE,110,2.0,9.0,50,0.00,,,-99.99,,2013-04-04 16:12:00,
2013-04-04 12:24:00,38.0,22.0,30.19,SE,127,5.0,10.0,51,0.00,,,-99.99,,2013-04-04 16:24:00,
2013-04-04 12:33:00,39.0,22.0,30.18,SE,128,6.0,11.0,50,0.00,,,-99.99,,2013-04-04 16:33:00,
2013-04-04 12:43:00,39.0,22.0,30.18,SE,128,6.0,11.0,50,0.00,,,-99.99,,2013-04-04 16:43:00,
2013-04-04 12:53:00,40.0,21.0,30.17,SE,124,8.0,17.0,47,0.00,,,-99.99,,2013-04-04 16:53:00,
2013-04-04 13:03:00,41.0,24.0,30.16,ESE,115,6.0,14.0,50,0.00,,,-99.99,,2013-04-04 17:03:00,
2013-04-04 13:13:00,41.0,24.0,30.16,ESE,115,6.0,14.0,50,0.00,,,-99.99,,2013-04-04 17:13:00,
2013-04-04 13:23:00,42.0,23.0,30.15,ESE,120,6.0,15.0,47,0.00,,,-99.99,,2013-04-04 17:23:00,
2013-04-04 13:33:00,42.0,23.0,30.14,SE,127,4.0,13.0,47,0.00,,,-99.99,,2013-04-04 17:33:00,
2013-04-04 13:42:00,42.0,23.0,30.14,SE,127,4.0,13.0,47,0.00,,,-99.99,,2013-04-04 17:42:00,
2013-04-04 13:53:00,43.0,23.0,30.14,SE,133,7.0,16.0,44,0.00,,,-99.99,,2013-04-04 17:53:00,
2013-04-04 14:02:00,44.0,25.0,30.12,SE,142,7.0,19.0,46,0.00,,,-99.99,,2013-04-04 18:02:00,
2013-04-04 14:12:00,44.0,25.0,30.12,SE,142,7.0,19.0,46,0.00,,,-99.99,,2013-04-04 18:12:00,
2013-04-04 14:23:00,44.0,24.0,30.14,SE,135,7.0,14.0,45,0.00,,,-99.99,,2013-04-04 18:23:00,
2013-04-04 14:32:00,45.0,25.0,30.11,ESE,119,6.0,13.0,46,0.00,,,-99.99,,2013-04-04 18:32:00,
2013-04-04 14:43:00,45.0,25.0,30.11,ESE,119,6.0,13.0,46,0.00,,,-99.99,,2013-04-04 18:43:00,
2013-04-04 14:52:00,44.0,25.0,30.11,East,98,4.0,12.0,46,0.00,,,-99.99,,2013-04-04 18:52:00,
2013-04-04 15:02:00,44.0,26.0,30.11,SE,132,7.0,15.0,48,0.00,,,-99.99,,2013-04-04 19:02:00,
2013-04-04 15:12:00,44.0,26.0,30.11,SE,132,7.0,15.0,48,0.00,,,-99.99,,2013-04-04 19:12:00,
2013-04-04 15:22:00,45.0,27.0,30.10,SE,136,4.0,16.0,50,0.00,,,-99.99,,2013-04-04 19:22:00,
2013-04-04 15:33:00,45.0,27.0,30.10,SE,136,4.0,16.0,50,0.00,,,-99.99,,2013-04-04 19:33:00,
2013-04-04 15:42:00,45.0,27.0,30.10,SE,136,4.0,16.0,50,0.00,,,-99.99,,2013-04-04 19:42:00,
2013-04-04 15:52:00,45.0,27.0,30.09,SE,133,5.0,13.0,50,0.00,,,-99.99,,2013-04-04 19:52:00,
2013-04-04 16:04:00,45.0,27.0,30.09,ESE,109,6.0,11.0,50,0.00,,,-99.99,,2013-04-04 20:04:00,
2013-04-04 16:12:00,45.0,27.0,30.09,ESE,109,6.0,11.0,50,0.00,,,-99.99,,2013-04-04 20:12:00,
2013-04-04 16:23:00,45.0,27.0,30.06,SE,125,6.0,15.0,50,0.00,,,-99.99,,2013-04-04 20:23:00,
2013-04-04 16:32:00,45.0,27.0,30.07,ESE,120,5.0,13.0,50,0.00,,,-99.99,,2013-04-04 20:32:00,
2013-04-04 16:42:00,45.0,27.0,30.07,ESE,120,5.0,13.0,50,0.00,,,-99.99,,2013-04-04 20:42:00,
2013-04-04 16:53:00,45.0,27.0,30.06,SE,133,6.0,12.0,49,0.00,,,-99.99,,2013-04-04 20:53:00,
2013-04-04 17:02:00,45.0,27.0,30.06,SE,137,6.0,12.0,48,0.00,,,-99.99,,2013-04-04 21:02:00,
2013-04-04 17:12:00,45.0,27.0,30.06,SE,137,6.0,12.0,48,0.00,,,-99.99,,2013-04-04 21:12:00,
2013-04-04 17:22:00,45.0,26.0,30.05,SE,145,0.0,20.0,47,0.00,,,-99.99,,2013-04-04 21:22:00,
2013-04-04 17:32:00,45.0,27.0,30.04,ESE,114,5.0,13.0,49,0.00,,,-99.99,,2013-04-04 21:32:00,
2013-04-04 17:43:00,45.0,27.0,30.04,ESE,114,5.0,13.0,49,0.00,,,-99.99,,2013-04-04 21:43:00,
2013-04-04 17:53:00,45.0,26.0,30.04,SE,137,7.0,15.0,47,0.00,,,-99.99,,2013-04-04 21:53:00,
2013-04-04 18:04:00,45.0,27.0,30.03,SE,135,6.0,12.0,49,0.00,,,-99.99,,2013-04-04 22:04:00,
2013-04-04 18:12:00,45.0,27.0,30.03,SE,135,6.0,12.0,49,0.00,,,-99.99,,2013-04-04 22:12:00,
2013-04-04 18:23:00,45.0,27.0,30.03,SE,136,6.0,12.0,49,0.00,,,-99.99,,2013-04-04 22:23:00,
2013-04-04 18:33:00,45.0,27.0,30.03,SE,127,1.0,11.0,50,0.00,,,-99.99,,2013-04-04 22:33:00,
2013-04-04 18:42:00,45.0,27.0,30.03,SE,127,1.0,11.0,50,0.00,,,-99.99,,2013-04-04 22:42:00,
2013-04-04 18:53:00,44.0,26.0,30.02,SE,126,6.0,15.0,49,0.00,,,-99.99,,2013-04-04 22:53:00,
2013-04-04 19:03:00,44.0,27.0,30.02,SSE,147,2.0,9.0,51,0.00,,,-99.99,,2013-04-04 23:03:00,
2013-04-04 19:12:00,44.0,27.0,30.02,SSE,147,2.0,9.0,51,0.00,,,-99.99,,2013-04-04 23:12:00,
2013-04-04 19:22:00,44.0,28.0,30.01,SE,134,5.0,13.0,52,0.00,,,-99.99,,2013-04-04 23:22:00,
2013-04-04 19:32:00,44.0,28.0,30.01,SE,124,4.0,9.0,52,0.00,,,-99.99,,2013-04-04 23:32:00,
2013-04-04 19:42:00,44.0,28.0,30.01,SE,124,4.0,9.0,52,0.00,,,-99.99,,2013-04-04 23:42:00,
2013-04-04 19:52:00,43.0,28.0,30.01,SE,137,2.0,9.0,54,0.00,,,-99.99,,2013-04-04 23:52:00,
2013-04-04 20:02:00,43.0,28.0,30.01,SE,144,5.0,10.0,54,0.00,,,-99.99,,2013-04-05 00:02:00,
2013-04-04 20:12:00,43.0,28.0,30.01,SE,144,5.0,10.0,54,0.00,,,-99.99,,2013-04-05 00:12:00,
2013-04-04 20:22:00,42.0,27.0,30.01,SE,130,1.0,7.0,54,0.00,,,-99.99,,2013-04-05 00:22:00,
2013-04-04 20:32:00,42.0,27.0,30.01,SE,137,1.0,9.0,55,0.00,,,-99.99,,2013-04-05 00:32:00,
2013-04-04 20:42:00,42.0,27.0,30.01,SE,137,1.0,9.0,55,0.00,,,-99.99,,2013-04-05 00:42:00,
2013-04-04 20:52:00,42.0,27.0,30.01,SE,141,2.0,11.0,56,0.00,,,-99.99,,2013-04-05 00:52:00,
2013-04-04 21:02:00,41.0,27.0,29.99,ESE,122,0.0,0.0,57,0.00,,,-99.99,,2013-04-05 01:02:00,
2013-04-04 21:12:00,41.0,27.0,29.99,ESE,122,0.0,0.0,57,0.00,,,-99.99,,2013-04-05 01:12:00,
2013-04-04 21:22:00,41.0,27.0,30.01,SE,141,0.0,5.0,58,0.00,,,-99.99,,2013-04-05 01:22:00,
2013-04-04 21:32:00,41.0,28.0,30.01,SE,144,0.0,5.0,59,0.00,,,-99.99,,2013-04-05 01:32:00,
2013-04-04 21:42:00,41.0,28.0,30.01,SE,144,0.0,5.0,59,0.00,,,-99.99,,2013-04-05 01:42:00,
2013-04-04 21:53:00,41.0,28.0,29.99,SE,144,0.0,8.0,59,0.00,,,-99.99,,2013-04-05 01:53:00,
2013-04-04 22:03:00,40.0,27.0,29.99,SE,143,0.0,0.0,60,0.00,,,-99.99,,2013-04-05 02:03:00,
2013-04-04 22:12:00,40.0,27.0,29.99,SE,143,0.0,0.0,60,0.00,,,-99.99,,2013-04-05 02:12:00,
2013-04-04 22:22:00,40.0,27.0,29.99,SE,143,0.0,0.0,60,0.00,,,-99.99,,2013-04-05 02:22:00,
2013-04-04 22:32:00,40.0,28.0,29.99,SE,143,0.0,0.0,62,0.00,,,-99.99,,2013-04-05 02:32:00,
2013-04-04 22:42:00,40.0,28.0,29.99,SE,143,0.0,0.0,62,0.00,,,-99.99,,2013-04-05 02:42:00,
2013-04-04 22:52:00,40.0,28.0,29.98,SE,143,0.0,0.0,62,0.00,,,-99.99,,2013-04-05 02:52:00,
2013-04-04 23:02:00,40.0,28.0,29.98,SE,143,0.0,0.0,63,0.00,,,-99.99,,2013-04-05 03:02:00,
2013-04-04 23:12:00,40.0,28.0,29.98,SE,143,0.0,0.0,63,0.00,,,-99.99,,2013-04-05 03:12:00,
2013-04-04 23:22:00,39.0,27.0,29.97,SE,143,0.0,3.0,63,0.00,,,-99.99,,2013-04-05 03:22:00,
2013-04-04 23:32:00,39.0,28.0,29.97,ESE,114,0.0,0.0,64,0.00,,,-99.99,,2013-04-05 03:32:00,
2013-04-04 23:43:00,39.0,28.0,29.97,ESE,114,0.0,0.0,64,0.00,,,-99.99,,2013-04-05 03:43:00,
2013-04-04 23:54:00,39.0,28.0,29.96,SE,136,0.0,7.0,65,0.00,,,-99.99,,2013-04-05 03:54:00,